Terminal Aerodrome Forecast
Issued by NWS

Home | Current Version | Previous Version | Text Only | Print | Product List | Glossary On
Versions: 1 2 3 4 5 6 7 8 9 10 11 12 13 14 15 16 17 18
168
FTUS43 KIND 272320
TAFLAF
TAF
KLAF 272320Z 2800/2824 36008KT P6SM VCSH FEW024 SCT080 OVC100
     FM280600 02005KT P6SM BKN060
     FM280900 04006KT P6SM BKN020
     FM281000 04007KT P6SM BKN020
     FM281300 04008KT P6SM BKN025
      AMD LTD TO CLD VIS AND WIND 2801/2813=

USA.gov is the U.S. government's official web portal to all federal, state and local government web resources and services.